Hi Land, Louisiana
Current Conditions -  °F | °C
As of 7:11 AM on Sunday 23 Nov 2014 (Local Time) from KNBG Reporting Station
Light Rain Light Rain  
Wind Chill: 67°   Ceiling: 8000
Heat Index: 67°   Visibility: NA
Dew Point: 64°   Wind: 10mph
Humidity: 90%   Direction: 250°WSW
Pressure: 29.74"   Gusts: 24mph
Location:  29.912°N, 89.8759°W
Report Text: KNBG 231311Z AUTO 25009G21KT -RA FEW008 SCT070 BKN080 19/18 A2974 RMK AO2 P0000 T01940178 TSNO $
Loading
Personal Weather Stations






























Interactive Weather Map New forecast layout! Learn more

10-Day Weather Forecast

Advertisements
Track Severe Weather on mobile